sensor_id;sensor_type;location;lat;lon;timestamp;P1;durP1;ratioP1;P2;durP2;ratioP2
61570;SDS011;47463;49.884;10.010;2023-05-10T00:00:00;5.7;;;4.5;;
61570;SDS011;47463;49.884;10.010;2023-05-10T00:05:00;6;;;4.3;;
61570;SDS011;47463;49.884;10.010;2023-05-10T00:10:00;5.8;;;4.5;;
61570;SDS011;47463;49.884;10.010;2023-05-10T00:15:00;4.6;;;4.1;;
61570;SDS011;47463;49.884;10.010;2023-05-10T00:20:00;4.6;;;4.1;;
61570;SDS011;47463;49.884;10.010;2023-05-10T00:25:00;4;;;3.5;;
61570;SDS011;47463;49.884;10.010;2023-05-10T00:30:00;4.8;;;3.5;;
61570;SDS011;47463;49.884;10.010;2023-05-10T00:35:00;5.8;;;3.8;;
61570;SDS011;47463;49.884;10.010;2023-05-10T00:40:00;4;;;3.1;;
61570;SDS011;47463;49.884;10.010;2023-05-10T00:45:00;4.2;;;3.3;;
61570;SDS011;47463;49.884;10.010;2023-05-10T00:50:00;4.2;;;3.3;;
61570;SDS011;47463;49.884;10.010;2023-05-10T00:55:00;5.3;;;3;;
61570;SDS011;47463;49.884;10.010;2023-05-10T01:00:00;4.1;;;3.5;;
61570;SDS011;47463;49.884;10.010;2023-05-10T01:05:00;4.2;;;2.9;;
61570;SDS011;47463;49.884;10.010;2023-05-10T01:10:00;4.1;;;3.1;;
61570;SDS011;47463;49.884;10.010;2023-05-10T01:15:00;3.9;;;2.6;;
61570;SDS011;47463;49.884;10.010;2023-05-10T01:20:00;3.9;;;2.6;;
61570;SDS011;47463;49.884;10.010;2023-05-10T01:25:06;4;;;3;;
61570;SDS011;47463;49.884;10.010;2023-05-10T01:30:21;4.3;;;3.1;;
61570;SDS011;47463;49.884;10.010;2023-05-10T01:35:00;5.2;;;3.2;;
61570;SDS011;47463;49.884;10.010;2023-05-10T01:40:00;5;;;3.2;;
61570;SDS011;47463;49.884;10.010;2023-05-10T01:45:02;4.6;;;3.4;;
61570;SDS011;47463;49.884;10.010;2023-05-10T01:50:01;4.6;;;3.4;;
61570;SDS011;47463;49.884;10.010;2023-05-10T01:55:00;3.6;;;2.8;;
61570;SDS011;47463;49.884;10.010;2023-05-10T02:00:00;3.2;;;2.9;;
61570;SDS011;47463;49.884;10.010;2023-05-10T02:05:00;2.3;;;2.1;;
61570;SDS011;47463;49.884;10.010;2023-05-10T02:10:00;2.5;;;1.9;;
61570;SDS011;47463;49.884;10.010;2023-05-10T02:15:00;1.8;;;1.3;;
61570;SDS011;47463;49.884;10.010;2023-05-10T02:20:00;1.8;;;1.3;;
61570;SDS011;47463;49.884;10.010;2023-05-10T02:25:00;2.5;;;1.2;;
61570;SDS011;47463;49.884;10.010;2023-05-10T02:30:00;4.9;;;1.4;;
61570;SDS011;47463;49.884;10.010;2023-05-10T02:35:00;2;;;0.8;;
61570;SDS011;47463;49.884;10.010;2023-05-10T02:40:00;2.1;;;1;;
61570;SDS011;47463;49.884;10.010;2023-05-10T02:45:00;1.1;;;0.8;;
61570;SDS011;47463;49.884;10.010;2023-05-10T02:50:00;1.1;;;0.8;;
61570;SDS011;47463;49.884;10.010;2023-05-10T02:55:00;1.5;;;1.2;;
61570;SDS011;47463;49.884;10.010;2023-05-10T03:00:00;2.2;;;1;;
61570;SDS011;47463;49.884;10.010;2023-05-10T03:05:00;1.2;;;0.9;;
61570;SDS011;47463;49.884;10.010;2023-05-10T03:10:00;3.9;;;1;;
61570;SDS011;47463;49.884;10.010;2023-05-10T03:15:00;2.7;;;1;;
61570;SDS011;47463;49.884;10.010;2023-05-10T03:20:02;2.7;;;1;;
61570;SDS011;47463;49.884;10.010;2023-05-10T03:25:00;1.1;;;0.8;;
61570;SDS011;47463;49.884;10.010;2023-05-10T03:30:00;2.2;;;1.1;;
61570;SDS011;47463;49.884;10.010;2023-05-10T03:35:00;1.8;;;0.8;;
61570;SDS011;47463;49.884;10.010;2023-05-10T03:40:00;1;;;0.8;;
61570;SDS011;47463;49.884;10.010;2023-05-10T03:45:00;1;;;0.8;;
61570;SDS011;47463;49.884;10.010;2023-05-10T03:50:00;1;;;0.8;;
61570;SDS011;47463;49.884;10.010;2023-05-10T03:55:00;1.5;;;0.9;;
61570;SDS011;47463;49.884;10.010;2023-05-10T04:00:00;1.6;;;1;;
61570;SDS011;47463;49.884;10.010;2023-05-10T04:05:00;1.3;;;1.1;;
61570;SDS011;47463;49.884;10.010;2023-05-10T04:10:00;1.6;;;1.3;;
61570;SDS011;47463;49.884;10.010;2023-05-10T04:15:00;1.6;;;1.4;;
61570;SDS011;47463;49.884;10.010;2023-05-10T04:20:00;1.6;;;1.4;;
61570;SDS011;47463;49.884;10.010;2023-05-10T04:25:00;3.8;;;1.3;;
61570;SDS011;47463;49.884;10.010;2023-05-10T04:30:00;2.3;;;1.4;;
61570;SDS011;47463;49.884;10.010;2023-05-10T04:35:00;1.8;;;1.4;;
61570;SDS011;47463;49.884;10.010;2023-05-10T04:40:00;1.8;;;1.5;;
61570;SDS011;47463;49.884;10.010;2023-05-10T04:45:00;1.8;;;1.5;;
61570;SDS011;47463;49.884;10.010;2023-05-10T04:50:00;1.8;;;1.5;;
61570;SDS011;47463;49.884;10.010;2023-05-10T04:55:00;1.7;;;1.6;;
61570;SDS011;47463;49.884;10.010;2023-05-10T05:00:00;1.9;;;1.7;;
61570;SDS011;47463;49.884;10.010;2023-05-10T05:05:00;4.3;;;1.8;;
61570;SDS011;47463;49.884;10.010;2023-05-10T05:10:00;2.6;;;2.1;;
61570;SDS011;47463;49.884;10.010;2023-05-10T05:15:00;2.7;;;2.1;;
61570;SDS011;47463;49.884;10.010;2023-05-10T05:20:00;2.7;;;2.1;;
61570;SDS011;47463;49.884;10.010;2023-05-10T05:25:00;3.1;;;2.1;;
61570;SDS011;47463;49.884;10.010;2023-05-10T05:30:00;2;;;1.9;;
61570;SDS011;47463;49.884;10.010;2023-05-10T05:35:00;2.5;;;1.9;;
61570;SDS011;47463;49.884;10.010;2023-05-10T05:40:00;3.6;;;1.8;;
61570;SDS011;47463;49.884;10.010;2023-05-10T05:45:00;2.7;;;2;;
61570;SDS011;47463;49.884;10.010;2023-05-10T05:50:00;2.7;;;2;;
61570;SDS011;47463;49.884;10.010;2023-05-10T05:55:00;2.6;;;2;;
61570;SDS011;47463;49.884;10.010;2023-05-10T06:00:00;2.6;;;2;;
61570;SDS011;47463;49.884;10.010;2023-05-10T06:05:00;3;;;2.2;;
61570;SDS011;47463;49.884;10.010;2023-05-10T06:10:00;2.8;;;1.9;;
61570;SDS011;47463;49.884;10.010;2023-05-10T06:15:00;2.5;;;1.9;;
61570;SDS011;47463;49.884;10.010;2023-05-10T06:20:00;2.5;;;1.9;;
61570;SDS011;47463;49.884;10.010;2023-05-10T06:25:00;2.3;;;2.1;;
61570;SDS011;47463;49.884;10.010;2023-05-10T06:30:00;3.2;;;2.1;;
61570;SDS011;47463;49.884;10.010;2023-05-10T06:35:00;3.8;;;2.1;;
61570;SDS011;47463;49.884;10.010;2023-05-10T06:40:00;6.3;;;2.2;;
61570;SDS011;47463;49.884;10.010;2023-05-10T06:45:00;2.8;;;2.3;;
61570;SDS011;47463;49.884;10.010;2023-05-10T06:50:00;2.8;;;2.3;;
61570;SDS011;47463;49.884;10.010;2023-05-10T06:55:00;7.5;;;2.2;;
61570;SDS011;47463;49.884;10.010;2023-05-10T07:00:00;4.2;;;2.4;;
61570;SDS011;47463;49.884;10.010;2023-05-10T07:05:00;5.1;;;2.5;;
61570;SDS011;47463;49.884;10.010;2023-05-10T07:10:00;3.2;;;2.2;;
61570;SDS011;47463;49.884;10.010;2023-05-10T07:15:00;3.9;;;2.5;;
61570;SDS011;47463;49.884;10.010;2023-05-10T07:20:00;3.9;;;2.5;;
61570;SDS011;47463;49.884;10.010;2023-05-10T07:25:00;3;;;2.7;;
61570;SDS011;47463;49.884;10.010;2023-05-10T07:30:00;3.5;;;3;;
61570;SDS011;47463;49.884;10.010;2023-05-10T07:35:00;3.6;;;3;;
61570;SDS011;47463;49.884;10.010;2023-05-10T07:40:00;5.4;;;3.4;;
61570;SDS011;47463;49.884;10.010;2023-05-10T07:45:00;4.2;;;3.4;;
61570;SDS011;47463;49.884;10.010;2023-05-10T07:50:00;4.2;;;3.4;;
61570;SDS011;47463;49.884;10.010;2023-05-10T07:55:00;4.5;;;3.8;;
61570;SDS011;47463;49.884;10.010;2023-05-10T08:00:00;5;;;3.1;;
61570;SDS011;47463;49.884;10.010;2023-05-10T08:05:00;3.7;;;2.7;;
61570;SDS011;47463;49.884;10.010;2023-05-10T08:10:00;6.2;;;3;;
61570;SDS011;47463;49.884;10.010;2023-05-10T08:15:00;4.3;;;2.5;;
61570;SDS011;47463;49.884;10.010;2023-05-10T08:20:00;4.3;;;2.5;;
61570;SDS011;47463;49.884;10.010;2023-05-10T08:25:00;6.6;;;2.8;;
61570;SDS011;47463;49.884;10.010;2023-05-10T08:30:00;3.7;;;2.5;;
61570;SDS011;47463;49.884;10.010;2023-05-10T08:35:00;6.2;;;3;;
61570;SDS011;47463;49.884;10.010;2023-05-10T08:40:00;5.1;;;2.3;;
61570;SDS011;47463;49.884;10.010;2023-05-10T08:45:00;3.5;;;2.2;;
61570;SDS011;47463;49.884;10.010;2023-05-10T08:50:00;3.5;;;2.2;;
61570;SDS011;47463;49.884;10.010;2023-05-10T08:55:00;4.5;;;2.2;;
61570;SDS011;47463;49.884;10.010;2023-05-10T09:00:00;5.5;;;2.5;;
61570;SDS011;47463;49.884;10.010;2023-05-10T09:05:00;4.2;;;2.2;;
61570;SDS011;47463;49.884;10.010;2023-05-10T09:10:00;3.4;;;2.2;;
61570;SDS011;47463;49.884;10.010;2023-05-10T09:15:00;4.2;;;2.2;;
61570;SDS011;47463;49.884;10.010;2023-05-10T09:20:00;4.2;;;2.2;;
61570;SDS011;47463;49.884;10.010;2023-05-10T09:25:03;4.6;;;2.2;;
61570;SDS011;47463;49.884;10.010;2023-05-10T09:30:00;5.2;;;2.2;;
61570;SDS011;47463;49.884;10.010;2023-05-10T09:35:05;2.6;;;1.9;;
61570;SDS011;47463;49.884;10.010;2023-05-10T09:40:00;5.4;;;2.5;;
61570;SDS011;47463;49.884;10.010;2023-05-10T09:45:01;5;;;2;;
61570;SDS011;47463;49.884;10.010;2023-05-10T09:50:00;5;;;2;;
61570;SDS011;47463;49.884;10.010;2023-05-10T09:55:00;3.1;;;2.1;;
61570;SDS011;47463;49.884;10.010;2023-05-10T10:00:00;3.3;;;2.1;;
61570;SDS011;47463;49.884;10.010;2023-05-10T10:05:00;4;;;2.1;;
61570;SDS011;47463;49.884;10.010;2023-05-10T10:10:00;2.9;;;2.2;;
61570;SDS011;47463;49.884;10.010;2023-05-10T10:15:00;3.6;;;2.3;;
61570;SDS011;47463;49.884;10.010;2023-05-10T10:20:00;3.6;;;2.3;;
61570;SDS011;47463;49.884;10.010;2023-05-10T10:25:00;4.2;;;2.1;;
61570;SDS011;47463;49.884;10.010;2023-05-10T10:30:01;5.2;;;2.1;;
61570;SDS011;47463;49.884;10.010;2023-05-10T10:35:00;3.5;;;2.3;;
61570;SDS011;47463;49.884;10.010;2023-05-10T10:40:00;3.2;;;2;;
61570;SDS011;47463;49.884;10.010;2023-05-10T10:45:11;4.7;;;2.2;;
61570;SDS011;47463;49.884;10.010;2023-05-10T10:50:03;4.7;;;2.2;;
61570;SDS011;47463;49.884;10.010;2023-05-10T10:55:01;3.4;;;2.2;;
61570;SDS011;47463;49.884;10.010;2023-05-10T11:00:31;3;;;1.8;;
61570;SDS011;47463;49.884;10.010;2023-05-10T11:05:00;3;;;1.8;;
61570;SDS011;47463;49.884;10.010;2023-05-10T11:10:03;3;;;2;;
61570;SDS011;47463;49.884;10.010;2023-05-10T11:15:00;2.9;;;1.9;;
61570;SDS011;47463;49.884;10.010;2023-05-10T11:20:06;2.9;;;1.9;;
61570;SDS011;47463;49.884;10.010;2023-05-10T11:25:00;3.8;;;2.2;;
61570;SDS011;47463;49.884;10.010;2023-05-10T11:30:00;3.4;;;1.9;;
61570;SDS011;47463;49.884;10.010;2023-05-10T11:35:00;2.1;;;1.5;;
61570;SDS011;47463;49.884;10.010;2023-05-10T11:40:00;3;;;1.9;;
61570;SDS011;47463;49.884;10.010;2023-05-10T11:45:00;3.2;;;1.8;;
61570;SDS011;47463;49.884;10.010;2023-05-10T11:50:00;3.2;;;1.8;;
61570;SDS011;47463;49.884;10.010;2023-05-10T11:55:00;2.9;;;1.8;;
61570;SDS011;47463;49.884;10.010;2023-05-10T12:00:00;3.3;;;1.9;;
61570;SDS011;47463;49.884;10.010;2023-05-10T12:05:00;3;;;1.7;;
61570;SDS011;47463;49.884;10.010;2023-05-10T12:10:07;2.5;;;1.4;;
61570;SDS011;47463;49.884;10.010;2023-05-10T12:15:00;2.1;;;1.3;;
61570;SDS011;47463;49.884;10.010;2023-05-10T12:20:12;2.1;;;1.3;;
61570;SDS011;47463;49.884;10.010;2023-05-10T12:25:00;3;;;1.7;;
61570;SDS011;47463;49.884;10.010;2023-05-10T12:30:00;2.6;;;1.7;;
61570;SDS011;47463;49.884;10.010;2023-05-10T12:35:00;3.1;;;1.8;;
61570;SDS011;47463;49.884;10.010;2023-05-10T12:40:00;3.1;;;1.4;;
61570;SDS011;47463;49.884;10.010;2023-05-10T12:45:00;2.5;;;1.4;;
61570;SDS011;47463;49.884;10.010;2023-05-10T12:50:00;2.5;;;1.4;;
61570;SDS011;47463;49.884;10.010;2023-05-10T12:55:00;4.5;;;1.9;;
61570;SDS011;47463;49.884;10.010;2023-05-10T13:00:00;2.2;;;1.4;;
61570;SDS011;47463;49.884;10.010;2023-05-10T13:05:00;1.2;;;1;;
61570;SDS011;47463;49.884;10.010;2023-05-10T13:10:00;1.6;;;0.9;;
61570;SDS011;47463;49.884;10.010;2023-05-10T13:15:00;1;;;0.9;;
61570;SDS011;47463;49.884;10.010;2023-05-10T13:20:00;1;;;0.9;;
61570;SDS011;47463;49.884;10.010;2023-05-10T13:25:00;2.6;;;1;;
61570;SDS011;47463;49.884;10.010;2023-05-10T13:30:00;1.6;;;0.9;;
61570;SDS011;47463;49.884;10.010;2023-05-10T13:35:00;1.7;;;1;;
61570;SDS011;47463;49.884;10.010;2023-05-10T13:40:00;2.6;;;1;;
61570;SDS011;47463;49.884;10.010;2023-05-10T13:45:00;1.9;;;1.2;;
61570;SDS011;47463;49.884;10.010;2023-05-10T13:50:00;1.9;;;1.2;;
61570;SDS011;47463;49.884;10.010;2023-05-10T13:55:00;3;;;1.2;;
61570;SDS011;47463;49.884;10.010;2023-05-10T14:00:00;1.9;;;1.2;;
61570;SDS011;47463;49.884;10.010;2023-05-10T14:05:00;2.7;;;1.4;;
61570;SDS011;47463;49.884;10.010;2023-05-10T14:10:00;3.7;;;1.7;;
61570;SDS011;47463;49.884;10.010;2023-05-10T14:15:00;3;;;1.6;;
61570;SDS011;47463;49.884;10.010;2023-05-10T14:20:00;3;;;1.6;;
61570;SDS011;47463;49.884;10.010;2023-05-10T14:25:00;2.7;;;1.5;;
61570;SDS011;47463;49.884;10.010;2023-05-10T14:30:00;3.4;;;1.8;;
61570;SDS011;47463;49.884;10.010;2023-05-10T14:35:00;2.3;;;1.6;;
61570;SDS011;47463;49.884;10.010;2023-05-10T14:40:00;1.9;;;1.6;;
61570;SDS011;47463;49.884;10.010;2023-05-10T14:45:00;3.4;;;1.6;;
61570;SDS011;47463;49.884;10.010;2023-05-10T14:50:00;3.4;;;1.6;;
61570;SDS011;47463;49.884;10.010;2023-05-10T14:55:00;2.5;;;1.7;;
61570;SDS011;47463;49.884;10.010;2023-05-10T15:00:00;4.9;;;1.6;;
61570;SDS011;47463;49.884;10.010;2023-05-10T15:05:00;4.1;;;1.8;;
61570;SDS011;47463;49.884;10.010;2023-05-10T15:10:00;1.8;;;1.7;;
61570;SDS011;47463;49.884;10.010;2023-05-10T15:15:00;3.2;;;1.9;;
61570;SDS011;47463;49.884;10.010;2023-05-10T15:20:00;3.2;;;1.9;;
61570;SDS011;47463;49.884;10.010;2023-05-10T15:25:00;4.9;;;2;;
61570;SDS011;47463;49.884;10.010;2023-05-10T15:30:00;4.4;;;2;;
61570;SDS011;47463;49.884;10.010;2023-05-10T15:35:00;4.3;;;2.1;;
61570;SDS011;47463;49.884;10.010;2023-05-10T15:40:00;4.4;;;1.9;;
61570;SDS011;47463;49.884;10.010;2023-05-10T15:45:00;4.7;;;2.1;;
61570;SDS011;47463;49.884;10.010;2023-05-10T15:50:00;4.7;;;2.1;;
61570;SDS011;47463;49.884;10.010;2023-05-10T15:55:00;2.3;;;1.8;;
61570;SDS011;47463;49.884;10.010;2023-05-10T16:00:00;7.2;;;2.1;;
61570;SDS011;47463;49.884;10.010;2023-05-10T16:05:00;5.1;;;2.9;;
61570;SDS011;47463;49.884;10.010;2023-05-10T16:10:00;5.1;;;3.1;;
61570;SDS011;47463;49.884;10.010;2023-05-10T16:15:00;4.8;;;3.2;;
61570;SDS011;47463;49.884;10.010;2023-05-10T16:20:00;4.8;;;3.2;;
61570;SDS011;47463;49.884;10.010;2023-05-10T16:25:00;4.7;;;3.4;;
61570;SDS011;47463;49.884;10.010;2023-05-10T16:30:00;6.4;;;4.1;;
61570;SDS011;47463;49.884;10.010;2023-05-10T16:35:00;5.7;;;3.8;;
61570;SDS011;47463;49.884;10.010;2023-05-10T16:40:00;4.9;;;3.9;;
61570;SDS011;47463;49.884;10.010;2023-05-10T16:45:00;5;;;3.8;;
61570;SDS011;47463;49.884;10.010;2023-05-10T16:50:00;5;;;3.8;;
61570;SDS011;47463;49.884;10.010;2023-05-10T16:55:00;5.4;;;4.2;;
61570;SDS011;47463;49.884;10.010;2023-05-10T17:00:00;5.3;;;4.7;;
61570;SDS011;47463;49.884;10.010;2023-05-10T17:05:00;9.9;;;5;;
61570;SDS011;47463;49.884;10.010;2023-05-10T17:10:00;5.4;;;4.6;;
61570;SDS011;47463;49.884;10.010;2023-05-10T17:15:00;6.5;;;5.1;;
61570;SDS011;47463;49.884;10.010;2023-05-10T17:20:00;6.5;;;5.1;;
61570;SDS011;47463;49.884;10.010;2023-05-10T17:25:00;7.5;;;5.1;;
61570;SDS011;47463;49.884;10.010;2023-05-10T17:30:00;5.8;;;4.9;;
61570;SDS011;47463;49.884;10.010;2023-05-10T17:35:00;5.1;;;4.6;;
61570;SDS011;47463;49.884;10.010;2023-05-10T17:40:00;7.3;;;4.8;;
61570;SDS011;47463;49.884;10.010;2023-05-10T17:45:00;7.7;;;4.7;;
61570;SDS011;47463;49.884;10.010;2023-05-10T17:50:00;7.7;;;4.7;;
61570;SDS011;47463;49.884;10.010;2023-05-10T17:55:00;6.9;;;4.4;;
61570;SDS011;47463;49.884;10.010;2023-05-10T18:00:00;5.1;;;4;;
61570;SDS011;47463;49.884;10.010;2023-05-10T18:05:00;4.7;;;4.1;;
61570;SDS011;47463;49.884;10.010;2023-05-10T18:10:00;6.5;;;3.9;;
61570;SDS011;47463;49.884;10.010;2023-05-10T18:15:00;3.6;;;2.9;;
61570;SDS011;47463;49.884;10.010;2023-05-10T18:20:00;3.6;;;2.9;;
61570;SDS011;47463;49.884;10.010;2023-05-10T18:25:00;4.3;;;2.8;;
61570;SDS011;47463;49.884;10.010;2023-05-10T18:30:00;5.4;;;2.8;;
61570;SDS011;47463;49.884;10.010;2023-05-10T18:35:00;4.8;;;2.8;;
61570;SDS011;47463;49.884;10.010;2023-05-10T18:40:00;4.1;;;2.5;;
61570;SDS011;47463;49.884;10.010;2023-05-10T18:45:00;4.9;;;2.7;;
61570;SDS011;47463;49.884;10.010;2023-05-10T18:50:01;4.9;;;2.7;;
61570;SDS011;47463;49.884;10.010;2023-05-10T18:55:00;4.3;;;2.6;;
61570;SDS011;47463;49.884;10.010;2023-05-10T19:00:00;5.7;;;3;;
61570;SDS011;47463;49.884;10.010;2023-05-10T19:05:00;4.1;;;2.8;;
61570;SDS011;47463;49.884;10.010;2023-05-10T19:10:00;4.2;;;2.7;;
61570;SDS011;47463;49.884;10.010;2023-05-10T19:15:00;4.5;;;2.6;;
61570;SDS011;47463;49.884;10.010;2023-05-10T19:20:00;4.5;;;2.6;;
61570;SDS011;47463;49.884;10.010;2023-05-10T19:25:00;5.7;;;2.8;;
61570;SDS011;47463;49.884;10.010;2023-05-10T19:30:00;7.9;;;3.2;;
61570;SDS011;47463;49.884;10.010;2023-05-10T19:35:00;5.3;;;2.8;;
61570;SDS011;47463;49.884;10.010;2023-05-10T19:40:00;5.2;;;3.2;;
61570;SDS011;47463;49.884;10.010;2023-05-10T19:45:00;5.3;;;3.2;;
61570;SDS011;47463;49.884;10.010;2023-05-10T19:50:00;5.3;;;3.2;;
61570;SDS011;47463;49.884;10.010;2023-05-10T19:55:00;4.3;;;2.9;;
61570;SDS011;47463;49.884;10.010;2023-05-10T20:00:00;4.4;;;2.7;;
61570;SDS011;47463;49.884;10.010;2023-05-10T20:05:00;3.7;;;2.5;;
61570;SDS011;47463;49.884;10.010;2023-05-10T20:10:00;6.3;;;2.7;;
61570;SDS011;47463;49.884;10.010;2023-05-10T20:15:00;6;;;2.4;;
61570;SDS011;47463;49.884;10.010;2023-05-10T20:20:00;6;;;2.4;;
61570;SDS011;47463;49.884;10.010;2023-05-10T20:25:00;4.2;;;2.3;;
61570;SDS011;47463;49.884;10.010;2023-05-10T20:30:00;3;;;2.3;;
61570;SDS011;47463;49.884;10.010;2023-05-10T20:35:00;4.7;;;2.9;;
61570;SDS011;47463;49.884;10.010;2023-05-10T20:40:00;3.9;;;2.4;;
61570;SDS011;47463;49.884;10.010;2023-05-10T20:45:00;3.6;;;2.6;;
61570;SDS011;47463;49.884;10.010;2023-05-10T20:50:00;3.6;;;2.6;;
61570;SDS011;47463;49.884;10.010;2023-05-10T20:55:00;3.8;;;2.5;;
61570;SDS011;47463;49.884;10.010;2023-05-10T21:00:00;4;;;2.6;;
61570;SDS011;47463;49.884;10.010;2023-05-10T21:05:00;2.9;;;2.4;;
61570;SDS011;47463;49.884;10.010;2023-05-10T21:10:00;3.9;;;2.3;;
61570;SDS011;47463;49.884;10.010;2023-05-10T21:15:00;3.2;;;2.4;;
61570;SDS011;47463;49.884;10.010;2023-05-10T21:20:00;3.2;;;2.4;;
61570;SDS011;47463;49.884;10.010;2023-05-10T21:25:00;3.7;;;2.1;;
61570;SDS011;47463;49.884;10.010;2023-05-10T21:30:00;4.6;;;2.3;;
61570;SDS011;47463;49.884;10.010;2023-05-10T21:35:00;5.1;;;2.3;;
61570;SDS011;47463;49.884;10.010;2023-05-10T21:40:00;3.5;;;2.2;;
61570;SDS011;47463;49.884;10.010;2023-05-10T21:45:00;3.8;;;2;;
61570;SDS011;47463;49.884;10.010;2023-05-10T21:50:00;3.8;;;2;;
61570;SDS011;47463;49.884;10.010;2023-05-10T21:55:00;2.6;;;2.3;;
61570;SDS011;47463;49.884;10.010;2023-05-10T22:00:00;3.8;;;2.1;;
61570;SDS011;47463;49.884;10.010;2023-05-10T22:05:00;3.3;;;2.1;;
61570;SDS011;47463;49.884;10.010;2023-05-10T22:10:00;5.8;;;2.3;;
61570;SDS011;47463;49.884;10.010;2023-05-10T22:15:00;2.6;;;2;;
61570;SDS011;47463;49.884;10.010;2023-05-10T22:20:00;2.6;;;2;;
61570;SDS011;47463;49.884;10.010;2023-05-10T22:25:00;4.1;;;2.1;;
61570;SDS011;47463;49.884;10.010;2023-05-10T22:30:00;4.2;;;2.2;;
61570;SDS011;47463;49.884;10.010;2023-05-10T22:35:00;3;;;2.2;;
61570;SDS011;47463;49.884;10.010;2023-05-10T22:40:00;2.9;;;2.1;;
61570;SDS011;47463;49.884;10.010;2023-05-10T22:45:00;2.6;;;1.9;;
61570;SDS011;47463;49.884;10.010;2023-05-10T22:50:00;2.6;;;1.9;;
61570;SDS011;47463;49.884;10.010;2023-05-10T22:55:00;4.2;;;2.1;;
61570;SDS011;47463;49.884;10.010;2023-05-10T23:00:00;3.7;;;2;;
61570;SDS011;47463;49.884;10.010;2023-05-10T23:05:00;4.9;;;2;;
61570;SDS011;47463;49.884;10.010;2023-05-10T23:10:00;3.2;;;2.1;;
61570;SDS011;47463;49.884;10.010;2023-05-10T23:15:00;3.7;;;2;;
61570;SDS011;47463;49.884;10.010;2023-05-10T23:20:00;3.7;;;2;;
61570;SDS011;47463;49.884;10.010;2023-05-10T23:25:00;4.7;;;2;;
61570;SDS011;47463;49.884;10.010;2023-05-10T23:30:00;3.5;;;1.7;;
61570;SDS011;47463;49.884;10.010;2023-05-10T23:35:00;2.8;;;1.9;;
61570;SDS011;47463;49.884;10.010;2023-05-10T23:40:00;4.6;;;1.8;;
61570;SDS011;47463;49.884;10.010;2023-05-10T23:45:00;2.8;;;1.8;;
61570;SDS011;47463;49.884;10.010;2023-05-10T23:50:00;2.8;;;1.8;;
61570;SDS011;47463;49.884;10.010;2023-05-10T23:55:00;5;;;1.8;;
